sensor_id;sensor_type;location;lat;lon;timestamp;temperature;humidity
19920;DHT22;10122;50.074;19.920;2024-03-02T00:02:24;8.30;99.90
19920;DHT22;10122;50.074;19.920;2024-03-02T00:04:51;8.30;99.90
19920;DHT22;10122;50.074;19.920;2024-03-02T00:07:17;8.30;99.90
19920;DHT22;10122;50.074;19.920;2024-03-02T00:09:43;8.30;99.90
19920;DHT22;10122;50.074;19.920;2024-03-02T00:12:12;8.30;99.90
19920;DHT22;10122;50.074;19.920;2024-03-02T00:14:40;8.30;99.90
19920;DHT22;10122;50.074;19.920;2024-03-02T00:17:09;8.20;99.90
19920;DHT22;10122;50.074;19.920;2024-03-02T00:19:44;8.20;99.90
19920;DHT22;10122;50.074;19.920;2024-03-02T00:22:11;8.30;99.90
19920;DHT22;10122;50.074;19.920;2024-03-02T00:24:37;8.30;99.90
19920;DHT22;10122;50.074;19.920;2024-03-02T00:27:04;8.20;99.90
19920;DHT22;10122;50.074;19.920;2024-03-02T00:29:30;8.30;99.90
19920;DHT22;10122;50.074;19.920;2024-03-02T00:31:57;8.30;99.90
19920;DHT22;10122;50.074;19.920;2024-03-02T00:34:23;8.40;99.90
19920;DHT22;10122;50.074;19.920;2024-03-02T00:36:49;8.50;99.90
19920;DHT22;10122;50.074;19.920;2024-03-02T00:39:15;8.50;99.90
19920;DHT22;10122;50.074;19.920;2024-03-02T00:41:43;8.50;99.90
19920;DHT22;10122;50.074;19.920;2024-03-02T00:44:12;8.60;99.90
19920;DHT22;10122;50.074;19.920;2024-03-02T00:46:42;8.50;99.90
19920;DHT22;10122;50.074;19.920;2024-03-02T00:49:18;8.40;99.90
19920;DHT22;10122;50.074;19.920;2024-03-02T00:51:47;8.40;99.90
19920;DHT22;10122;50.074;19.920;2024-03-02T00:54:25;8.40;99.90
19920;DHT22;10122;50.074;19.920;2024-03-02T00:56:52;8.30;99.90
19920;DHT22;10122;50.074;19.920;2024-03-02T00:59:21;8.30;99.90
19920;DHT22;10122;50.074;19.920;2024-03-02T01:01:48;8.20;99.90
19920;DHT22;10122;50.074;19.920;2024-03-02T01:04:15;8.20;99.90
19920;DHT22;10122;50.074;19.920;2024-03-02T01:06:44;8.20;99.90
19920;DHT22;10122;50.074;19.920;2024-03-02T01:09:11;8.20;99.90
19920;DHT22;10122;50.074;19.920;2024-03-02T01:11:37;8.10;99.90
19920;DHT22;10122;50.074;19.920;2024-03-02T01:14:03;8.20;99.90
19920;DHT22;10122;50.074;19.920;2024-03-02T01:16:29;8.20;99.90
19920;DHT22;10122;50.074;19.920;2024-03-02T01:18:55;8.20;99.90
19920;DHT22;10122;50.074;19.920;2024-03-02T01:21:20;8.30;99.90
19920;DHT22;10122;50.074;19.920;2024-03-02T01:23:46;8.30;99.90
19920;DHT22;10122;50.074;19.920;2024-03-02T01:26:12;8.30;99.90
19920;DHT22;10122;50.074;19.920;2024-03-02T01:28:37;8.20;99.90
19920;DHT22;10122;50.074;19.920;2024-03-02T01:31:03;8.10;99.90
19920;DHT22;10122;50.074;19.920;2024-03-02T01:33:29;8.00;99.90
19920;DHT22;10122;50.074;19.920;2024-03-02T01:35:54;8.00;99.90
19920;DHT22;10122;50.074;19.920;2024-03-02T01:38:20;7.90;99.90
19920;DHT22;10122;50.074;19.920;2024-03-02T01:40:46;7.90;99.90
19920;DHT22;10122;50.074;19.920;2024-03-02T01:43:11;8.00;99.90
19920;DHT22;10122;50.074;19.920;2024-03-02T01:45:37;8.00;99.90
19920;DHT22;10122;50.074;19.920;2024-03-02T01:48:07;8.00;99.90
19920;DHT22;10122;50.074;19.920;2024-03-02T01:50:33;8.00;99.90
19920;DHT22;10122;50.074;19.920;2024-03-02T01:53:00;8.10;99.90
19920;DHT22;10122;50.074;19.920;2024-03-02T01:55:26;8.10;99.90
19920;DHT22;10122;50.074;19.920;2024-03-02T01:57:54;8.10;99.90
19920;DHT22;10122;50.074;19.920;2024-03-02T02:00:21;8.10;99.90
19920;DHT22;10122;50.074;19.920;2024-03-02T02:02:48;8.00;99.90
19920;DHT22;10122;50.074;19.920;2024-03-02T02:05:14;8.00;99.90
19920;DHT22;10122;50.074;19.920;2024-03-02T02:07:41;7.90;99.90
19920;DHT22;10122;50.074;19.920;2024-03-02T02:10:08;7.90;99.90
19920;DHT22;10122;50.074;19.920;2024-03-02T02:12:34;7.90;99.90
19920;DHT22;10122;50.074;19.920;2024-03-02T02:15:00;8.00;99.90
19920;DHT22;10122;50.074;19.920;2024-03-02T02:17:26;8.00;99.90
19920;DHT22;10122;50.074;19.920;2024-03-02T02:19:51;8.10;99.90
19920;DHT22;10122;50.074;19.920;2024-03-02T02:22:17;8.00;99.90
19920;DHT22;10122;50.074;19.920;2024-03-02T02:24:43;8.00;99.90
19920;DHT22;10122;50.074;19.920;2024-03-02T02:27:09;7.90;99.90
19920;DHT22;10122;50.074;19.920;2024-03-02T02:29:36;7.90;99.90
19920;DHT22;10122;50.074;19.920;2024-03-02T02:32:02;7.90;99.90
19920;DHT22;10122;50.074;19.920;2024-03-02T02:34:28;7.90;99.90
19920;DHT22;10122;50.074;19.920;2024-03-02T02:36:53;8.00;99.90
19920;DHT22;10122;50.074;19.920;2024-03-02T02:39:21;7.90;99.90
19920;DHT22;10122;50.074;19.920;2024-03-02T02:41:48;7.80;99.90
19920;DHT22;10122;50.074;19.920;2024-03-02T02:44:13;7.80;99.90
19920;DHT22;10122;50.074;19.920;2024-03-02T02:46:40;7.80;99.90
19920;DHT22;10122;50.074;19.920;2024-03-02T02:49:06;7.80;99.90
19920;DHT22;10122;50.074;19.920;2024-03-02T02:51:32;7.70;99.90
19920;DHT22;10122;50.074;19.920;2024-03-02T02:53:58;7.70;99.90
19920;DHT22;10122;50.074;19.920;2024-03-02T02:56:23;7.80;99.90
19920;DHT22;10122;50.074;19.920;2024-03-02T02:58:49;7.80;99.90
19920;DHT22;10122;50.074;19.920;2024-03-02T03:01:16;7.70;99.90
19920;DHT22;10122;50.074;19.920;2024-03-02T03:03:45;7.70;99.90
19920;DHT22;10122;50.074;19.920;2024-03-02T03:06:11;7.70;99.90
19920;DHT22;10122;50.074;19.920;2024-03-02T03:08:37;7.70;99.90
19920;DHT22;10122;50.074;19.920;2024-03-02T03:11:04;7.70;99.90
19920;DHT22;10122;50.074;19.920;2024-03-02T03:13:31;7.70;99.90
19920;DHT22;10122;50.074;19.920;2024-03-02T03:15:57;7.70;99.90
19920;DHT22;10122;50.074;19.920;2024-03-02T03:18:23;7.60;99.90
19920;DHT22;10122;50.074;19.920;2024-03-02T03:20:48;7.60;99.90
19920;DHT22;10122;50.074;19.920;2024-03-02T03:23:15;7.60;99.90
19920;DHT22;10122;50.074;19.920;2024-03-02T03:25:45;7.60;99.90
19920;DHT22;10122;50.074;19.920;2024-03-02T03:28:10;7.70;99.90
19920;DHT22;10122;50.074;19.920;2024-03-02T03:30:39;7.60;99.90
19920;DHT22;10122;50.074;19.920;2024-03-02T03:33:05;7.60;99.90
19920;DHT22;10122;50.074;19.920;2024-03-02T03:35:34;7.60;99.90
19920;DHT22;10122;50.074;19.920;2024-03-02T03:38:00;7.50;99.90
19920;DHT22;10122;50.074;19.920;2024-03-02T03:40:26;7.40;99.90
19920;DHT22;10122;50.074;19.920;2024-03-02T03:42:52;7.40;99.90
19920;DHT22;10122;50.074;19.920;2024-03-02T03:45:18;7.40;99.90
19920;DHT22;10122;50.074;19.920;2024-03-02T03:47:44;7.30;99.90
19920;DHT22;10122;50.074;19.920;2024-03-02T03:50:10;7.30;99.90
19920;DHT22;10122;50.074;19.920;2024-03-02T03:52:36;7.30;99.90
19920;DHT22;10122;50.074;19.920;2024-03-02T03:55:01;7.20;99.90
19920;DHT22;10122;50.074;19.920;2024-03-02T03:57:27;7.20;99.90
19920;DHT22;10122;50.074;19.920;2024-03-02T03:59:53;7.20;99.90
19920;DHT22;10122;50.074;19.920;2024-03-02T04:02:19;7.20;99.90
19920;DHT22;10122;50.074;19.920;2024-03-02T04:04:45;7.30;99.90
19920;DHT22;10122;50.074;19.920;2024-03-02T04:07:11;7.30;99.90
19920;DHT22;10122;50.074;19.920;2024-03-02T04:09:37;7.20;99.90
19920;DHT22;10122;50.074;19.920;2024-03-02T04:12:02;7.20;99.90
19920;DHT22;10122;50.074;19.920;2024-03-02T04:14:28;7.20;99.90
19920;DHT22;10122;50.074;19.920;2024-03-02T04:16:54;7.20;99.90
19920;DHT22;10122;50.074;19.920;2024-03-02T04:19:19;7.20;99.90
19920;DHT22;10122;50.074;19.920;2024-03-02T04:21:45;7.20;99.90
19920;DHT22;10122;50.074;19.920;2024-03-02T04:24:11;7.20;99.90
19920;DHT22;10122;50.074;19.920;2024-03-02T04:26:36;7.20;99.90
19920;DHT22;10122;50.074;19.920;2024-03-02T04:29:02;7.10;99.90
19920;DHT22;10122;50.074;19.920;2024-03-02T04:31:28;7.10;99.90
19920;DHT22;10122;50.074;19.920;2024-03-02T04:33:54;7.10;99.90
19920;DHT22;10122;50.074;19.920;2024-03-02T04:36:20;7.10;99.90
19920;DHT22;10122;50.074;19.920;2024-03-02T04:38:46;7.10;99.90
19920;DHT22;10122;50.074;19.920;2024-03-02T04:41:12;7.00;99.90
19920;DHT22;10122;50.074;19.920;2024-03-02T04:43:38;7.00;99.90
19920;DHT22;10122;50.074;19.920;2024-03-02T04:46:04;7.00;99.90
19920;DHT22;10122;50.074;19.920;2024-03-02T04:48:31;6.90;99.90
19920;DHT22;10122;50.074;19.920;2024-03-02T04:50:56;6.90;99.90
19920;DHT22;10122;50.074;19.920;2024-03-02T04:53:22;7.00;99.90
19920;DHT22;10122;50.074;19.920;2024-03-02T04:55:48;7.00;99.90
19920;DHT22;10122;50.074;19.920;2024-03-02T04:58:19;7.10;99.90
19920;DHT22;10122;50.074;19.920;2024-03-02T05:00:45;7.10;99.90
19920;DHT22;10122;50.074;19.920;2024-03-02T05:03:12;7.10;99.90
19920;DHT22;10122;50.074;19.920;2024-03-02T05:05:38;7.10;99.90
19920;DHT22;10122;50.074;19.920;2024-03-02T05:08:04;7.10;99.90
19920;DHT22;10122;50.074;19.920;2024-03-02T05:10:30;7.10;99.90
19920;DHT22;10122;50.074;19.920;2024-03-02T05:12:55;7.20;99.90
19920;DHT22;10122;50.074;19.920;2024-03-02T05:15:25;7.10;99.90
19920;DHT22;10122;50.074;19.920;2024-03-02T05:17:51;7.10;99.90
19920;DHT22;10122;50.074;19.920;2024-03-02T05:20:17;7.10;99.90
19920;DHT22;10122;50.074;19.920;2024-03-02T05:22:43;7.10;99.90
19920;DHT22;10122;50.074;19.920;2024-03-02T05:25:08;7.10;99.90
19920;DHT22;10122;50.074;19.920;2024-03-02T05:27:37;7.10;99.90
19920;DHT22;10122;50.074;19.920;2024-03-02T05:30:03;7.20;99.90
19920;DHT22;10122;50.074;19.920;2024-03-02T05:32:32;7.20;99.90
19920;DHT22;10122;50.074;19.920;2024-03-02T05:34:59;7.20;99.90
19920;DHT22;10122;50.074;19.920;2024-03-02T05:37:24;7.10;99.90
19920;DHT22;10122;50.074;19.920;2024-03-02T05:39:50;7.20;99.90
19920;DHT22;10122;50.074;19.920;2024-03-02T05:42:16;7.10;99.90
19920;DHT22;10122;50.074;19.920;2024-03-02T05:44:44;7.10;99.90
19920;DHT22;10122;50.074;19.920;2024-03-02T05:47:09;7.20;99.90
19920;DHT22;10122;50.074;19.920;2024-03-02T05:49:35;7.40;99.90
19920;DHT22;10122;50.074;19.920;2024-03-02T05:52:01;7.40;99.90
19920;DHT22;10122;50.074;19.920;2024-03-02T05:54:27;7.50;99.90
19920;DHT22;10122;50.074;19.920;2024-03-02T05:56:52;7.50;99.90
19920;DHT22;10122;50.074;19.920;2024-03-02T05:59:19;7.60;99.90
19920;DHT22;10122;50.074;19.920;2024-03-02T06:01:46;7.60;99.90
19920;DHT22;10122;50.074;19.920;2024-03-02T06:04:13;7.60;99.90
19920;DHT22;10122;50.074;19.920;2024-03-02T06:06:39;7.70;99.90
19920;DHT22;10122;50.074;19.920;2024-03-02T06:09:06;7.70;99.90
19920;DHT22;10122;50.074;19.920;2024-03-02T06:11:39;7.60;99.90
19920;DHT22;10122;50.074;19.920;2024-03-02T06:14:07;7.60;99.90
19920;DHT22;10122;50.074;19.920;2024-03-02T06:16:33;7.60;99.90
19920;DHT22;10122;50.074;19.920;2024-03-02T06:18:59;7.60;99.90
19920;DHT22;10122;50.074;19.920;2024-03-02T06:21:25;7.50;99.90
19920;DHT22;10122;50.074;19.920;2024-03-02T06:23:51;7.50;99.90
19920;DHT22;10122;50.074;19.920;2024-03-02T06:26:17;7.50;99.90
19920;DHT22;10122;50.074;19.920;2024-03-02T06:28:44;7.50;99.90
19920;DHT22;10122;50.074;19.920;2024-03-02T06:31:09;7.50;99.90
19920;DHT22;10122;50.074;19.920;2024-03-02T06:33:35;7.60;99.90
19920;DHT22;10122;50.074;19.920;2024-03-02T06:36:02;7.60;99.90
19920;DHT22;10122;50.074;19.920;2024-03-02T06:38:27;7.60;99.90
19920;DHT22;10122;50.074;19.920;2024-03-02T06:40:53;7.70;99.90
19920;DHT22;10122;50.074;19.920;2024-03-02T06:43:21;7.70;99.90
19920;DHT22;10122;50.074;19.920;2024-03-02T06:45:52;7.80;99.90
19920;DHT22;10122;50.074;19.920;2024-03-02T06:48:19;7.80;99.90
19920;DHT22;10122;50.074;19.920;2024-03-02T06:50:47;7.80;99.90
19920;DHT22;10122;50.074;19.920;2024-03-02T06:53:13;7.80;99.90
19920;DHT22;10122;50.074;19.920;2024-03-02T06:55:39;7.90;99.90
19920;DHT22;10122;50.074;19.920;2024-03-02T06:58:05;7.90;99.90
19920;DHT22;10122;50.074;19.920;2024-03-02T07:00:31;7.90;99.90
19920;DHT22;10122;50.074;19.920;2024-03-02T07:02:56;7.90;99.90
19920;DHT22;10122;50.074;19.920;2024-03-02T07:05:22;7.90;99.90
19920;DHT22;10122;50.074;19.920;2024-03-02T07:07:48;7.90;99.90
19920;DHT22;10122;50.074;19.920;2024-03-02T07:10:13;8.00;99.90
19920;DHT22;10122;50.074;19.920;2024-03-02T07:12:39;8.00;99.90
19920;DHT22;10122;50.074;19.920;2024-03-02T07:15:05;8.10;99.90
19920;DHT22;10122;50.074;19.920;2024-03-02T07:17:31;8.10;99.90
19920;DHT22;10122;50.074;19.920;2024-03-02T07:19:58;8.20;99.90
19920;DHT22;10122;50.074;19.920;2024-03-02T07:22:24;8.30;99.90
19920;DHT22;10122;50.074;19.920;2024-03-02T07:24:49;8.30;99.90
19920;DHT22;10122;50.074;19.920;2024-03-02T07:27:16;8.30;99.90
19920;DHT22;10122;50.074;19.920;2024-03-02T07:29:42;8.30;99.90
19920;DHT22;10122;50.074;19.920;2024-03-02T07:32:09;8.30;99.90
19920;DHT22;10122;50.074;19.920;2024-03-02T07:34:35;8.40;99.90
19920;DHT22;10122;50.074;19.920;2024-03-02T07:37:01;8.40;99.90
19920;DHT22;10122;50.074;19.920;2024-03-02T07:39:27;8.50;99.90
19920;DHT22;10122;50.074;19.920;2024-03-02T07:41:53;8.50;99.90
19920;DHT22;10122;50.074;19.920;2024-03-02T07:44:18;8.50;99.90
19920;DHT22;10122;50.074;19.920;2024-03-02T07:46:45;8.50;99.90
19920;DHT22;10122;50.074;19.920;2024-03-02T07:49:18;8.60;99.90
19920;DHT22;10122;50.074;19.920;2024-03-02T07:51:44;8.60;99.90
19920;DHT22;10122;50.074;19.920;2024-03-02T07:54:10;8.70;99.90
19920;DHT22;10122;50.074;19.920;2024-03-02T07:56:36;8.70;99.90
19920;DHT22;10122;50.074;19.920;2024-03-02T07:59:02;8.70;99.90
19920;DHT22;10122;50.074;19.920;2024-03-02T08:01:32;8.70;99.90
19920;DHT22;10122;50.074;19.920;2024-03-02T08:03:59;8.70;99.90
19920;DHT22;10122;50.074;19.920;2024-03-02T08:06:26;8.70;99.90
19920;DHT22;10122;50.074;19.920;2024-03-02T08:08:56;8.70;99.90
19920;DHT22;10122;50.074;19.920;2024-03-02T08:11:21;8.80;99.90
19920;DHT22;10122;50.074;19.920;2024-03-02T08:13:48;8.90;99.90
19920;DHT22;10122;50.074;19.920;2024-03-02T08:16:18;8.90;99.90
19920;DHT22;10122;50.074;19.920;2024-03-02T08:18:48;9.00;99.90
19920;DHT22;10122;50.074;19.920;2024-03-02T08:21:14;8.90;99.90
19920;DHT22;10122;50.074;19.920;2024-03-02T08:23:40;8.80;99.90
19920;DHT22;10122;50.074;19.920;2024-03-02T08:26:10;8.70;99.90
19920;DHT22;10122;50.074;19.920;2024-03-02T08:28:36;8.70;99.90
19920;DHT22;10122;50.074;19.920;2024-03-02T08:31:08;8.70;99.90
19920;DHT22;10122;50.074;19.920;2024-03-02T08:33:34;8.70;99.90
19920;DHT22;10122;50.074;19.920;2024-03-02T08:36:00;8.70;99.90
19920;DHT22;10122;50.074;19.920;2024-03-02T08:38:26;8.70;99.90
19920;DHT22;10122;50.074;19.920;2024-03-02T08:40:52;8.70;99.90
19920;DHT22;10122;50.074;19.920;2024-03-02T08:43:19;8.80;99.90
19920;DHT22;10122;50.074;19.920;2024-03-02T08:45:45;8.80;99.90
19920;DHT22;10122;50.074;19.920;2024-03-02T08:48:11;8.90;99.90
19920;DHT22;10122;50.074;19.920;2024-03-02T08:50:36;9.10;99.90
19920;DHT22;10122;50.074;19.920;2024-03-02T08:53:03;9.10;99.90
19920;DHT22;10122;50.074;19.920;2024-03-02T08:55:29;9.10;99.90
19920;DHT22;10122;50.074;19.920;2024-03-02T08:57:55;9.10;99.90
19920;DHT22;10122;50.074;19.920;2024-03-02T09:00:22;9.00;99.90
19920;DHT22;10122;50.074;19.920;2024-03-02T09:02:47;9.00;99.90
19920;DHT22;10122;50.074;19.920;2024-03-02T09:05:13;9.10;99.90
19920;DHT22;10122;50.074;19.920;2024-03-02T09:07:39;9.10;99.90
19920;DHT22;10122;50.074;19.920;2024-03-02T09:10:06;9.20;99.90
19920;DHT22;10122;50.074;19.920;2024-03-02T09:12:32;9.20;99.90
19920;DHT22;10122;50.074;19.920;2024-03-02T09:14:59;9.20;99.90
19920;DHT22;10122;50.074;19.920;2024-03-02T09:17:25;9.20;99.90
19920;DHT22;10122;50.074;19.920;2024-03-02T09:19:51;9.10;99.90
19920;DHT22;10122;50.074;19.920;2024-03-02T09:22:19;9.00;99.90
19920;DHT22;10122;50.074;19.920;2024-03-02T09:24:44;9.10;99.90
19920;DHT22;10122;50.074;19.920;2024-03-02T09:27:10;9.10;99.90
19920;DHT22;10122;50.074;19.920;2024-03-02T09:29:36;9.20;99.90
19920;DHT22;10122;50.074;19.920;2024-03-02T09:32:02;9.20;99.90
19920;DHT22;10122;50.074;19.920;2024-03-02T09:34:28;9.20;99.90
19920;DHT22;10122;50.074;19.920;2024-03-02T09:36:53;9.20;99.90
19920;DHT22;10122;50.074;19.920;2024-03-02T09:39:19;9.20;99.90
19920;DHT22;10122;50.074;19.920;2024-03-02T09:41:45;9.30;99.90
19920;DHT22;10122;50.074;19.920;2024-03-02T09:44:12;9.30;99.90
19920;DHT22;10122;50.074;19.920;2024-03-02T09:46:38;9.30;99.90
19920;DHT22;10122;50.074;19.920;2024-03-02T09:49:04;9.40;99.90
19920;DHT22;10122;50.074;19.920;2024-03-02T09:51:31;9.40;99.90
19920;DHT22;10122;50.074;19.920;2024-03-02T09:53:56;9.30;99.90
19920;DHT22;10122;50.074;19.920;2024-03-02T09:56:22;9.40;99.90
19920;DHT22;10122;50.074;19.920;2024-03-02T09:58:49;9.40;99.90
19920;DHT22;10122;50.074;19.920;2024-03-02T10:01:14;9.50;99.90
19920;DHT22;10122;50.074;19.920;2024-03-02T10:03:40;9.50;99.90
19920;DHT22;10122;50.074;19.920;2024-03-02T10:06:25;9.50;99.90
19920;DHT22;10122;50.074;19.920;2024-03-02T10:08:52;9.60;99.90
19920;DHT22;10122;50.074;19.920;2024-03-02T10:11:29;9.70;99.90
19920;DHT22;10122;50.074;19.920;2024-03-02T10:14:13;9.70;99.90
19920;DHT22;10122;50.074;19.920;2024-03-02T10:16:43;9.90;99.90
19920;DHT22;10122;50.074;19.920;2024-03-02T10:19:19;9.90;99.90
19920;DHT22;10122;50.074;19.920;2024-03-02T10:21:53;9.90;99.90
19920;DHT22;10122;50.074;19.920;2024-03-02T10:24:21;10.10;99.90
19920;DHT22;10122;50.074;19.920;2024-03-02T10:26:47;10.10;99.90
19920;DHT22;10122;50.074;19.920;2024-03-02T10:29:13;10.20;99.90
19920;DHT22;10122;50.074;19.920;2024-03-02T10:31:39;10.30;99.90
19920;DHT22;10122;50.074;19.920;2024-03-02T10:34:06;10.30;99.90
19920;DHT22;10122;50.074;19.920;2024-03-02T10:36:33;10.40;99.90
19920;DHT22;10122;50.074;19.920;2024-03-02T10:39:05;10.50;99.90
19920;DHT22;10122;50.074;19.920;2024-03-02T10:41:35;10.50;99.90
19920;DHT22;10122;50.074;19.920;2024-03-02T10:44:05;10.60;99.90
19920;DHT22;10122;50.074;19.920;2024-03-02T10:46:34;10.60;99.90
19920;DHT22;10122;50.074;19.920;2024-03-02T10:49:01;10.60;99.90
19920;DHT22;10122;50.074;19.920;2024-03-02T10:51:28;10.70;99.90
19920;DHT22;10122;50.074;19.920;2024-03-02T10:54:00;10.70;99.90
19920;DHT22;10122;50.074;19.920;2024-03-02T10:56:40;10.80;99.90
19920;DHT22;10122;50.074;19.920;2024-03-02T11:01:50;10.90;99.90
19920;DHT22;10122;50.074;19.920;2024-03-02T11:04:18;11.00;99.90
19920;DHT22;10122;50.074;19.920;2024-03-02T11:06:48;11.20;99.90
19920;DHT22;10122;50.074;19.920;2024-03-02T11:09:14;11.20;99.90
19920;DHT22;10122;50.074;19.920;2024-03-02T11:11:43;11.40;99.90
19920;DHT22;10122;50.074;19.920;2024-03-02T11:14:17;11.40;99.90
19920;DHT22;10122;50.074;19.920;2024-03-02T11:16:44;11.50;99.90
19920;DHT22;10122;50.074;19.920;2024-03-02T11:19:13;11.60;99.90
19920;DHT22;10122;50.074;19.920;2024-03-02T11:21:39;11.70;99.90
19920;DHT22;10122;50.074;19.920;2024-03-02T11:26:50;11.90;99.90
19920;DHT22;10122;50.074;19.920;2024-03-02T11:32:14;11.90;99.90
19920;DHT22;10122;50.074;19.920;2024-03-02T11:34:42;11.90;99.90
19920;DHT22;10122;50.074;19.920;2024-03-02T11:37:13;12.00;99.90
19920;DHT22;10122;50.074;19.920;2024-03-02T11:39:39;12.10;99.90
19920;DHT22;10122;50.074;19.920;2024-03-02T11:42:06;12.00;99.90
19920;DHT22;10122;50.074;19.920;2024-03-02T11:44:35;12.00;99.90
19920;DHT22;10122;50.074;19.920;2024-03-02T11:47:06;12.00;99.90
19920;DHT22;10122;50.074;19.920;2024-03-02T11:49:49;12.10;99.90
19920;DHT22;10122;50.074;19.920;2024-03-02T11:52:17;12.00;99.90
19920;DHT22;10122;50.074;19.920;2024-03-02T11:54:45;12.00;99.90
19920;DHT22;10122;50.074;19.920;2024-03-02T11:57:21;12.00;99.90
19920;DHT22;10122;50.074;19.920;2024-03-02T11:59:50;12.00;99.90
19920;DHT22;10122;50.074;19.920;2024-03-02T12:02:17;12.00;99.90
19920;DHT22;10122;50.074;19.920;2024-03-02T12:04:43;12.00;99.90
19920;DHT22;10122;50.074;19.920;2024-03-02T12:07:10;12.00;99.90
19920;DHT22;10122;50.074;19.920;2024-03-02T12:09:36;12.10;99.90
19920;DHT22;10122;50.074;19.920;2024-03-02T12:12:09;12.20;99.90
19920;DHT22;10122;50.074;19.920;2024-03-02T12:14:37;12.10;99.90
19920;DHT22;10122;50.074;19.920;2024-03-02T12:17:04;12.10;99.90
19920;DHT22;10122;50.074;19.920;2024-03-02T12:19:30;12.20;99.90
19920;DHT22;10122;50.074;19.920;2024-03-02T12:21:59;12.20;99.90
19920;DHT22;10122;50.074;19.920;2024-03-02T12:24:29;12.20;99.90
19920;DHT22;10122;50.074;19.920;2024-03-02T12:26:55;12.20;99.90
19920;DHT22;10122;50.074;19.920;2024-03-02T12:29:22;12.20;99.90
19920;DHT22;10122;50.074;19.920;2024-03-02T12:31:50;12.30;99.90
19920;DHT22;10122;50.074;19.920;2024-03-02T12:34:17;12.20;99.90
19920;DHT22;10122;50.074;19.920;2024-03-02T12:36:43;12.20;99.90
19920;DHT22;10122;50.074;19.920;2024-03-02T12:39:09;12.20;99.90
19920;DHT22;10122;50.074;19.920;2024-03-02T12:41:37;12.20;99.90
19920;DHT22;10122;50.074;19.920;2024-03-02T12:44:04;12.30;99.90
19920;DHT22;10122;50.074;19.920;2024-03-02T12:46:33;12.30;99.90
19920;DHT22;10122;50.074;19.920;2024-03-02T12:49:09;12.40;99.90
19920;DHT22;10122;50.074;19.920;2024-03-02T12:51:36;12.50;99.90
19920;DHT22;10122;50.074;19.920;2024-03-02T12:54:02;12.50;99.90
19920;DHT22;10122;50.074;19.920;2024-03-02T12:56:29;12.50;99.90
19920;DHT22;10122;50.074;19.920;2024-03-02T12:58:55;12.60;99.90
19920;DHT22;10122;50.074;19.920;2024-03-02T13:01:21;12.70;99.90
19920;DHT22;10122;50.074;19.920;2024-03-02T13:03:50;12.70;99.90
19920;DHT22;10122;50.074;19.920;2024-03-02T13:06:19;12.80;99.90
19920;DHT22;10122;50.074;19.920;2024-03-02T13:08:45;12.90;99.90
19920;DHT22;10122;50.074;19.920;2024-03-02T13:11:12;12.90;99.90
19920;DHT22;10122;50.074;19.920;2024-03-02T13:13:39;13.00;99.90
19920;DHT22;10122;50.074;19.920;2024-03-02T13:16:12;13.00;99.90
19920;DHT22;10122;50.074;19.920;2024-03-02T13:18:39;13.10;99.90
19920;DHT22;10122;50.074;19.920;2024-03-02T13:21:05;13.20;99.90
19920;DHT22;10122;50.074;19.920;2024-03-02T13:23:31;13.30;99.90
19920;DHT22;10122;50.074;19.920;2024-03-02T13:25:57;13.30;99.90
19920;DHT22;10122;50.074;19.920;2024-03-02T13:28:26;13.30;99.90
19920;DHT22;10122;50.074;19.920;2024-03-02T13:30:51;13.30;99.90
19920;DHT22;10122;50.074;19.920;2024-03-02T13:33:17;13.30;99.90
19920;DHT22;10122;50.074;19.920;2024-03-02T13:35:51;13.30;99.90
19920;DHT22;10122;50.074;19.920;2024-03-02T13:38:20;13.30;99.90
19920;DHT22;10122;50.074;19.920;2024-03-02T13:40:46;13.30;99.90
19920;DHT22;10122;50.074;19.920;2024-03-02T13:43:17;13.30;99.90
19920;DHT22;10122;50.074;19.920;2024-03-02T13:45:43;13.30;99.90
19920;DHT22;10122;50.074;19.920;2024-03-02T13:48:09;13.30;99.90
19920;DHT22;10122;50.074;19.920;2024-03-02T13:50:34;13.30;99.90
19920;DHT22;10122;50.074;19.920;2024-03-02T13:53:00;13.30;99.90
19920;DHT22;10122;50.074;19.920;2024-03-02T13:55:26;13.30;99.90
19920;DHT22;10122;50.074;19.920;2024-03-02T13:57:51;13.30;99.90
19920;DHT22;10122;50.074;19.920;2024-03-02T14:00:17;13.20;99.90
19920;DHT22;10122;50.074;19.920;2024-03-02T14:02:45;13.20;99.90
19920;DHT22;10122;50.074;19.920;2024-03-02T14:05:11;13.20;99.90
19920;DHT22;10122;50.074;19.920;2024-03-02T14:07:41;13.20;99.90
19920;DHT22;10122;50.074;19.920;2024-03-02T14:10:07;13.30;99.90
19920;DHT22;10122;50.074;19.920;2024-03-02T14:12:33;13.30;99.90
19920;DHT22;10122;50.074;19.920;2024-03-02T14:14:59;13.30;99.90
19920;DHT22;10122;50.074;19.920;2024-03-02T14:17:27;13.30;99.90
19920;DHT22;10122;50.074;19.920;2024-03-02T14:19:53;13.30;99.90
19920;DHT22;10122;50.074;19.920;2024-03-02T14:22:19;13.30;99.90
19920;DHT22;10122;50.074;19.920;2024-03-02T14:24:45;13.30;99.90
19920;DHT22;10122;50.074;19.920;2024-03-02T14:27:12;13.30;99.90
19920;DHT22;10122;50.074;19.920;2024-03-02T14:29:39;13.30;99.90
19920;DHT22;10122;50.074;19.920;2024-03-02T14:32:06;13.20;99.90
19920;DHT22;10122;50.074;19.920;2024-03-02T14:34:31;13.20;99.90
19920;DHT22;10122;50.074;19.920;2024-03-02T14:36:58;13.10;99.90
19920;DHT22;10122;50.074;19.920;2024-03-02T14:39:24;12.90;99.90
19920;DHT22;10122;50.074;19.920;2024-03-02T14:41:50;12.90;99.90
19920;DHT22;10122;50.074;19.920;2024-03-02T14:44:16;12.80;99.90
19920;DHT22;10122;50.074;19.920;2024-03-02T14:46:43;12.80;99.90
19920;DHT22;10122;50.074;19.920;2024-03-02T14:49:12;12.80;99.90
19920;DHT22;10122;50.074;19.920;2024-03-02T14:51:38;12.80;99.90
19920;DHT22;10122;50.074;19.920;2024-03-02T14:54:03;12.80;99.90
19920;DHT22;10122;50.074;19.920;2024-03-02T14:56:29;12.70;99.90
19920;DHT22;10122;50.074;19.920;2024-03-02T14:58:55;12.70;99.90
19920;DHT22;10122;50.074;19.920;2024-03-02T15:01:21;12.60;99.90
19920;DHT22;10122;50.074;19.920;2024-03-02T15:03:50;12.50;99.90
19920;DHT22;10122;50.074;19.920;2024-03-02T15:06:16;12.50;99.90
19920;DHT22;10122;50.074;19.920;2024-03-02T15:08:42;12.50;99.90
19920;DHT22;10122;50.074;19.920;2024-03-02T15:11:08;12.50;99.90
19920;DHT22;10122;50.074;19.920;2024-03-02T15:13:34;12.50;99.90
19920;DHT22;10122;50.074;19.920;2024-03-02T15:16:01;12.50;99.90
19920;DHT22;10122;50.074;19.920;2024-03-02T15:18:26;12.50;99.90
19920;DHT22;10122;50.074;19.920;2024-03-02T15:20:53;12.40;99.90
19920;DHT22;10122;50.074;19.920;2024-03-02T15:23:18;12.40;99.90
19920;DHT22;10122;50.074;19.920;2024-03-02T15:25:44;12.40;99.90
19920;DHT22;10122;50.074;19.920;2024-03-02T15:28:10;12.40;99.90
19920;DHT22;10122;50.074;19.920;2024-03-02T15:30:35;12.40;99.90
19920;DHT22;10122;50.074;19.920;2024-03-02T15:33:02;12.40;99.90